Time;durP1;ratioP1;P1;durP2;ratioP2;P2;SDS_P1;SDS_P2;PMS_P1;PMS_P2;Temp;Humidity;BMP_temperature;BMP_pressure;BME280_temperature;BME280_humidity;BME280_pressure;Samples;Min_cycle;Max_cycle;Signal;HPM_P1;HPM_P2
2021/07/21 00:00:57;;;;;;;7.68;3.95;;;;;;;19.73;63.17;98765.31;4801797;29;20078;-60
2021/07/21 00:03:23;;;;;;;8.20;3.78;;;;;;;19.72;63.40;98775.03;4804246;29;20054;-59
2021/07/21 00:05:49;;;;;;;17.55;3.40;;;;;;;19.66;63.64;98765.00;4802179;29;20055;-61
2021/07/21 00:08:15;;;;;;;9.93;3.28;;;;;;;19.60;64.15;98759.41;4797737;29;20074;-61
2021/07/21 00:10:41;;;;;;;5.57;3.25;;;;;;;19.59;64.34;98753.28;4803936;29;20510;-60
2021/07/21 00:16:06;;;;;;;7.13;3.80;;;;;;;19.55;64.81;98756.34;5296009;24;20066;-60
2021/07/21 00:18:45;;;;;;;7.63;3.17;;;;;;;19.52;65.23;98756.59;4828413;29;20192;-60
2021/07/21 00:21:12;;;;;;;7.80;3.33;;;;;;;19.48;65.43;98765.72;4828531;29;20077;-60
2021/07/21 00:23:39;;;;;;;6.55;3.13;;;;;;;19.46;65.64;98760.59;4823907;29;20046;-60
2021/07/21 00:26:05;;;;;;;8.40;3.67;;;;;;;19.43;65.75;98753.75;4822449;29;20053;-60
2021/07/21 00:28:34;;;;;;;6.60;2.97;;;;;;;19.41;66.06;98753.06;4804475;29;20043;-60
2021/07/21 00:31:01;;;;;;;7.88;3.28;;;;;;;19.37;66.49;98758.69;4803959;29;20054;-61
2021/07/21 00:33:27;;;;;;;6.28;3.60;;;;;;;19.34;66.72;98759.81;4809358;29;20051;-60
2021/07/21 00:35:53;;;;;;;9.60;3.80;;;;;;;19.31;66.96;98752.13;4804162;29;20563;-60
2021/07/21 00:38:20;;;;;;;12.40;3.72;;;;;;;19.27;67.27;98757.81;4803683;29;20047;-60
2021/07/21 00:40:46;;;;;;;6.60;3.80;;;;;;;19.23;67.66;98751.13;4803017;29;20138;-58
2021/07/21 00:43:12;;;;;;;6.88;3.75;;;;;;;19.12;68.09;98749.41;4819221;29;20055;-59
2021/07/21 00:45:40;;;;;;;9.40;3.88;;;;;;;19.09;68.33;98746.19;4804063;29;20390;-60
2021/07/21 00:48:07;;;;;;;10.25;4.05;;;;;;;19.03;68.75;98747.53;4786811;29;20042;-60
2021/07/21 00:50:33;;;;;;;7.68;3.28;;;;;;;18.97;68.97;98748.06;4800817;29;20057;-60
2021/07/21 00:52:59;;;;;;;5.30;3.45;;;;;;;18.98;69.19;98753.19;4821187;29;20552;-60
2021/07/21 00:55:26;;;;;;;8.85;3.63;;;;;;;18.97;69.48;98743.63;4804051;29;20119;-60
2021/07/21 00:57:56;;;;;;;7.47;3.50;;;;;;;18.96;69.58;98744.56;4787571;29;20050;-60
2021/07/21 01:00:22;;;;;;;8.15;3.72;;;;;;;18.95;69.66;98732.38;4799912;29;20062;-59
2021/07/21 01:02:52;;;;;;;8.95;3.42;;;;;;;18.92;69.91;98731.81;4803677;29;20050;-60
2021/07/21 01:05:23;;;;;;;10.80;3.95;;;;;;;18.88;70.43;98733.03;4803539;29;20142;-60
2021/07/21 01:07:50;;;;;;;5.93;3.40;;;;;;;18.84;70.59;98739.50;4803161;29;20047;-59
2021/07/21 01:10:20;;;;;;;8.13;3.80;;;;;;;18.83;70.80;98733.41;4806438;29;20050;-59
2021/07/21 01:12:58;;;;;;;5.72;3.20;;;;;;;18.83;70.83;98727.31;4806455;29;20058;-60
2021/07/21 01:15:35;;;;;;;6.50;3.47;;;;;;;18.81;71.20;98719.53;4803296;29;20057;-60
2021/07/21 01:18:09;;;;;;;8.98;3.38;;;;;;;18.78;71.29;98724.22;4817695;29;20193;-59
2021/07/21 01:20:47;;;;;;;8.40;3.40;;;;;;;18.73;71.44;98724.59;4802633;29;20054;-60
2021/07/21 01:23:22;;;;;;;6.00;3.20;;;;;;;18.71;71.41;98721.25;4803547;29;20668;-59
2021/07/21 01:26:09;;;;;;;9.02;3.50;;;;;;;18.67;71.52;98714.56;4824258;29;20537;-60
2021/07/21 01:28:37;;;;;;;12.50;3.67;;;;;;;18.66;71.52;98717.31;4795737;29;20045;-59
2021/07/21 01:31:06;;;;;;;9.18;3.83;;;;;;;18.65;71.75;98711.22;4792499;29;20043;-60
2021/07/21 01:33:32;;;;;;;;;;;;;;;18.65;71.89;98710.38;4818136;29;20059;-59
2021/07/21 01:36:08;;;;;;;9.40;3.90;;;;;;;18.62;71.96;98714.13;4791091;29;19964;-60
2021/07/21 01:38:49;;;;;;;5.82;3.17;;;;;;;18.60;72.35;98711.59;4793576;29;20070;-59
2021/07/21 01:41:23;;;;;;;5.30;2.90;;;;;;;18.58;72.40;98707.41;4806230;29;20070;-60
2021/07/21 01:46:49;;;;;;;12.25;3.92;;;;;;;18.57;72.57;98708.41;5028414;23;20065;-61
2021/07/21 01:49:17;;;;;;;8.60;3.45;;;;;;;18.52;72.68;98703.50;4831210;29;20060;-58
2021/07/21 01:51:46;;;;;;;9.13;3.33;;;;;;;18.50;72.45;98709.81;4842188;29;20054;-59
2021/07/21 01:54:12;;;;;;;7.55;3.05;;;;;;;18.49;72.50;98710.78;4845357;29;20558;-58
2021/07/21 01:56:54;;;;;;;7.22;3.25;;;;;;;18.50;72.96;98712.47;4824583;29;20041;-58
2021/07/21 01:59:21;;;;;;;8.57;2.90;;;;;;;18.49;72.88;98708.16;4849594;29;20043;-58
2021/07/21 02:02:08;;;;;;;8.77;3.22;;;;;;;18.45;72.34;98712.84;4836201;29;20461;-57
2021/07/21 02:04:45;;;;;;;5.93;2.85;;;;;;;18.44;72.55;98710.31;4813890;29;20065;-58
2021/07/21 02:07:13;;;;;;;8.25;2.95;;;;;;;18.45;72.23;98712.00;4848520;29;20058;-59
2021/07/21 02:09:42;;;;;;;10.00;3.00;;;;;;;18.44;72.58;98712.97;4827743;29;20041;-59
2021/07/21 02:12:13;;;;;;;9.55;3.25;;;;;;;18.47;72.46;98710.09;4838493;29;20128;-59
2021/07/21 02:14:42;;;;;;;8.10;2.80;;;;;;;18.49;72.19;98706.34;4826574;29;20041;-61
2021/07/21 02:17:11;;;;;;;6.47;2.83;;;;;;;18.52;71.88;98716.66;4806508;29;20038;-58
2021/07/21 02:19:42;;;;;;;8.57;3.00;;;;;;;18.57;71.81;98711.88;4821249;29;20049;-59
2021/07/21 02:22:18;;;;;;;5.47;2.88;;;;;;;18.61;71.29;98709.81;4836668;29;20696;-60
2021/07/21 02:24:53;;;;;;;7.78;2.88;;;;;;;18.66;70.23;98715.53;4818232;29;20586;-59
2021/07/21 02:27:28;;;;;;;7.85;2.60;;;;;;;18.69;70.18;98714.44;4821665;29;20050;-60
2021/07/21 02:29:54;;;;;;;6.45;2.97;;;;;;;18.71;69.99;98716.00;4837399;29;20194;-59
2021/07/21 02:32:25;;;;;;;5.05;2.35;;;;;;;18.74;69.29;98722.78;4821194;29;20658;-59
2021/07/21 02:34:53;;;;;;;7.32;2.70;;;;;;;18.74;68.35;98717.50;5317947;23;20085;-58
2021/07/21 02:37:21;;;;;;;7.10;2.90;;;;;;;18.79;68.10;98721.44;4829073;29;20049;-58
2021/07/21 02:39:49;;;;;;;5.70;2.63;;;;;;;18.83;67.70;98729.94;4821820;29;20057;-60
2021/07/21 02:42:16;;;;;;;9.17;2.33;;;;;;;18.85;67.52;98725.38;4835224;29;20057;-58
2021/07/21 02:44:54;;;;;;;9.75;2.92;;;;;;;18.88;67.09;98735.66;5269243;23;20035;31
2021/07/21 02:47:20;;;;;;;11.10;3.03;;;;;;;18.89;66.77;98727.59;4823635;29;20086;-59
2021/07/21 02:49:52;;;;;;;10.05;2.30;;;;;;;18.87;66.94;98724.28;4818498;29;20073;-60
2021/07/21 02:52:54;;;;;;;5.47;2.45;;;;;;;18.90;66.81;98726.66;4813271;29;20386;-59
2021/07/21 02:58:49;;;;;;;4.53;2.35;;;;;;;18.95;65.99;98742.06;4831300;29;20062;-59
2021/07/21 03:01:18;;;;;;;8.10;2.50;;;;;;;19.01;65.51;98734.50;4825133;29;20058;-58
2021/07/21 03:03:45;;;;;;;9.63;2.50;;;;;;;19.09;65.21;98743.56;4825391;29;20516;-58
2021/07/21 03:06:13;;;;;;;7.55;3.05;;;;;;;19.09;65.18;98739.13;4840254;29;20317;-58
2021/07/21 03:08:58;;;;;;;9.00;3.05;;;;;;;19.14;65.15;98742.22;4817075;29;20701;-57
2021/07/21 03:11:31;;;;;;;6.22;2.65;;;;;;;19.19;64.97;98742.66;4821901;29;20046;-60
2021/07/21 03:14:00;;;;;;;6.05;2.33;;;;;;;19.24;64.73;98748.38;4827600;29;20577;-59
2021/07/21 03:16:32;;;;;;;6.28;2.53;;;;;;;19.26;64.67;98737.72;4821038;29;20084;-59
2021/07/21 03:19:00;;;;;;;9.93;3.20;;;;;;;19.30;64.52;98739.13;4823767;29;20085;-59
2021/07/21 03:21:34;;;;;;;19.70;3.60;;;;;;;19.38;64.20;98745.38;4830894;29;20050;-60
2021/07/21 03:24:12;;;;;;;6.95;3.20;;;;;;;19.47;63.55;98735.06;4825059;29;20054;-60
2021/07/21 03:26:54;;;;;;;6.45;2.55;;;;;;;19.57;63.22;98734.16;4841621;29;20128;-60
2021/07/21 03:29:24;;;;;;;6.55;2.22;;;;;;;19.70;62.69;98736.53;4825262;29;20053;-59
2021/07/21 03:31:56;;;;;;;6.03;2.45;;;;;;;19.80;62.07;98743.53;4835814;29;20079;-58
2021/07/21 03:34:24;;;;;;;4.30;2.60;;;;;;;19.87;61.51;98739.41;4831319;29;20053;-59
2021/07/21 03:37:03;;;;;;;5.15;2.53;;;;;;;19.96;61.29;98742.19;4838809;29;20777;-61
2021/07/21 03:39:55;;;;;;;8.45;2.80;;;;;;;19.98;60.92;98749.00;4832219;29;20492;-59
2021/07/21 03:42:49;;;;;;;8.70;3.15;;;;;;;20.02;60.91;98753.03;4836943;29;20038;-59
2021/07/21 03:45:23;;;;;;;6.40;3.05;;;;;;;20.03;60.63;98744.16;4828715;29;20050;-60
2021/07/21 03:47:49;;;;;;;8.05;2.70;;;;;;;20.10;60.46;98747.91;5308812;23;20154;-59
2021/07/21 03:50:20;;;;;;;10.02;2.78;;;;;;;20.16;59.99;98757.94;4821930;29;20065;-60
2021/07/21 03:52:48;;;;;;;6.80;3.08;;;;;;;20.22;59.73;98752.13;4822764;29;20525;-58
2021/07/21 03:55:17;;;;;;;8.73;3.58;;;;;;;20.28;59.59;98750.72;4806307;29;20054;-59
2021/07/21 03:58:09;;;;;;;10.73;4.72;;;;;;;20.34;59.50;98749.38;4801721;29;20050;-59
2021/07/21 04:01:02;;;;;;;4.90;2.40;;;;;;;20.39;59.26;98747.16;4801366;29;20062;-59
2021/07/21 04:03:39;;;;;;;6.88;2.80;;;;;;;20.41;58.99;98747.88;4789679;29;20047;-60
2021/07/21 04:06:08;;;;;;;7.57;3.75;;;;;;;20.46;58.77;98749.13;4804470;29;20054;-59
2021/07/21 04:09:05;;;;;;;9.00;3.05;;;;;;;20.52;58.49;98742.44;4790267;29;20090;-59
2021/07/21 04:11:33;;;;;;;11.80;3.53;;;;;;;20.60;58.24;98742.59;4818481;29;20043;-58
2021/07/21 04:14:02;;;;;;;;;;;;;;;20.68;57.97;98738.28;4819083;29;20058;-59
2021/07/21 04:16:36;;;;;;;12.60;4.10;;;;;;;20.75;57.87;98741.22;4818481;29;19925;-59
2021/07/21 04:19:04;;;;;;;10.40;2.90;;;;;;;20.82;57.70;98737.03;4803501;29;20138;-59
2021/07/21 04:21:30;;;;;;;10.50;3.75;;;;;;;20.90;57.50;98739.81;4805305;29;20054;-59
2021/07/21 04:23:57;;;;;;;11.88;5.30;;;;;;;20.95;57.50;98734.94;4817292;29;20125;-59
2021/07/21 04:26:35;;;;;;;14.57;3.80;;;;;;;21.03;57.24;98736.88;5098612;27;1370167;-60
2021/07/21 04:29:10;;;;;;;9.07;4.30;;;;;;;21.04;57.09;98731.44;5087127;28;20044;-59
2021/07/21 04:31:37;;;;;;;8.15;3.33;;;;;;;21.04;57.00;98741.19;5088562;28;20044;-60
2021/07/21 04:34:05;;;;;;;9.77;3.33;;;;;;;21.06;56.99;98737.44;5095524;28;20077;-58
2021/07/21 04:36:38;;;;;;;13.68;3.80;;;;;;;21.10;57.06;98740.59;5107315;28;20047;-60
2021/07/21 04:39:05;;;;;;;10.60;3.55;;;;;;;21.17;56.87;98738.28;5085304;28;20498;-61
2021/07/21 04:41:32;;;;;;;13.52;3.72;;;;;;;21.24;56.64;98734.94;5108095;28;20040;-58
2021/07/21 04:44:05;;;;;;;8.15;3.33;;;;;;;21.34;56.70;98742.84;5102873;28;20061;-59
2021/07/21 04:46:53;;;;;;;13.30;3.88;;;;;;;21.42;56.56;98733.19;5106665;28;20043;-58
2021/07/21 04:49:21;;;;;;;7.57;3.17;;;;;;;21.52;56.40;98741.91;5106382;28;20054;-59
2021/07/21 04:51:48;;;;;;;10.40;3.78;;;;;;;21.63;55.95;98740.06;5090730;28;20587;-59
2021/07/21 04:54:21;;;;;;;7.95;3.95;;;;;;;21.73;55.61;98740.88;5106118;28;20055;-59
2021/07/21 04:56:52;;;;;;;6.28;3.13;;;;;;;21.87;55.49;98743.03;5107011;28;20093;-58
2021/07/21 04:59:25;;;;;;;9.07;3.42;;;;;;;21.97;54.79;98741.22;5106539;28;20092;-60
2021/07/21 05:01:51;;;;;;;12.50;3.42;;;;;;;22.05;54.38;98743.09;5106873;28;20143;-59
2021/07/21 05:04:17;;;;;;;7.00;2.55;;;;;;;22.10;54.08;98746.16;5089929;28;20043;-59
2021/07/21 05:07:09;;;;;;;9.48;3.58;;;;;;;22.18;53.79;98749.75;5105119;28;20151;-60
2021/07/21 05:09:45;;;;;;;10.07;2.80;;;;;;;22.27;53.61;98751.47;5106224;28;20047;-60
2021/07/21 05:12:12;;;;;;;8.27;3.38;;;;;;;22.38;53.48;98758.38;5105551;28;20031;-59
2021/07/21 05:14:46;;;;;;;6.25;2.70;;;;;;;22.49;53.25;98750.22;5106409;28;20046;-60
2021/07/21 05:17:30;;;;;;;5.93;3.00;;;;;;;22.63;52.83;98751.50;5106835;28;20050;-59
2021/07/21 05:19:58;;;;;;;6.43;3.00;;;;;;;22.73;52.49;98749.63;5106378;28;20540;-60
2021/07/21 05:22:26;;;;;;;6.32;3.28;;;;;;;22.77;51.97;98753.66;5105682;28;20050;-59
2021/07/21 05:24:53;;;;;;;12.32;3.60;;;;;;;22.75;51.74;98748.50;5105469;28;20055;-59
2021/07/21 05:27:21;;;;;;;7.75;3.53;;;;;;;22.77;51.88;98756.28;5105403;28;20043;-58
2021/07/21 05:29:47;;;;;;;7.70;2.97;;;;;;;22.87;51.99;98758.88;5105739;28;20043;-59
2021/07/21 05:32:35;;;;;;;10.80;3.13;;;;;;;22.91;51.75;98755.78;5094738;28;20048;-59
2021/07/21 05:35:08;;;;;;;12.30;3.17;;;;;;;23.01;51.70;98760.97;5098865;28;20040;-59
2021/07/21 05:37:51;;;;;;;14.55;3.38;;;;;;;22.99;51.33;98753.19;5090066;28;20044;-57
2021/07/21 05:40:22;;;;;;;8.60;4.28;;;;;;;23.05;51.14;98754.38;5072483;28;20048;-59
2021/07/21 05:43:17;;;;;;;6.28;2.75;;;;;;;23.20;49.70;98750.19;5067936;28;20052;-58
2021/07/21 05:45:55;;;;;;;13.88;3.40;;;;;;;23.31;48.53;98757.88;5092730;28;20085;-58
2021/07/21 05:48:28;;;;;;;5.72;2.25;;;;;;;23.37;48.17;98751.13;5090194;28;20044;-58
2021/07/21 05:51:12;;;;;;;8.48;2.50;;;;;;;23.48;47.75;98750.91;5094085;28;20044;-59
2021/07/21 05:53:39;;;;;;;6.32;2.53;;;;;;;23.54;47.83;98755.59;5092236;28;20032;-58
2021/07/21 05:56:13;;;;;;;7.68;2.30;;;;;;;23.54;48.27;98747.63;5091946;28;20044;-59
2021/07/21 05:58:44;;;;;;;3.95;2.08;;;;;;;23.59;48.57;98750.63;5091719;28;20051;-58
2021/07/21 06:01:11;;;;;;;5.28;2.30;;;;;;;23.62;48.12;98745.00;5092579;28;20115;-59
2021/07/21 06:03:37;;;;;;;4.13;1.88;;;;;;;23.71;47.83;98740.59;5091058;28;20051;-58
2021/07/21 06:06:14;;;;;;;5.53;2.00;;;;;;;23.78;47.46;98746.91;5092142;28;20044;-59
2021/07/21 06:09:12;;;;;;;7.40;1.90;;;;;;;23.84;46.56;98748.94;5069886;28;20079;-59
2021/07/21 06:12:10;;;;;;;2.22;1.48;;;;;;;23.87;45.25;98738.81;5073315;28;20044;-59
2021/07/21 06:14:36;;;;;;;3.63;2.03;;;;;;;23.85;45.02;98748.78;5092741;28;20043;-58
2021/07/21 06:17:03;;;;;;;12.98;2.58;;;;;;;24.02;45.92;98739.06;5082252;28;20194;-59
2021/07/21 06:19:43;;;;;;;5.07;1.90;;;;;;;24.25;44.64;98742.78;5072017;28;20044;-58
2021/07/21 06:22:11;;;;;;;5.45;1.85;;;;;;;24.38;43.89;98735.19;5086361;28;20533;-59
2021/07/21 06:24:54;;;;;;;4.05;1.92;;;;;;;24.53;43.58;98740.69;5085236;28;20592;-59
2021/07/21 06:27:38;;;;;;;5.07;2.17;;;;;;;24.66;43.93;98743.69;5089126;28;20525;-60
2021/07/21 06:30:06;;;;;;;5.18;1.77;;;;;;;24.72;43.37;98752.84;5091896;28;20044;-60
2021/07/21 06:32:37;;;;;;;3.53;1.80;;;;;;;24.97;43.21;98740.41;5090813;28;20047;-60
2021/07/21 06:35:05;;;;;;;5.57;2.47;;;;;;;25.30;43.12;98739.38;5091021;28;20097;-59
2021/07/21 06:37:31;;;;;;;7.65;2.30;;;;;;;25.62;42.42;98741.19;5090983;28;20490;-59
2021/07/21 06:40:04;;;;;;;14.50;2.47;;;;;;;26.04;41.11;98732.84;5090234;28;20076;-60
2021/07/21 06:42:31;;;;;;;11.15;2.63;;;;;;;26.59;40.33;98737.25;5094489;28;20403;-58
2021/07/21 06:44:57;;;;;;;6.70;2.05;;;;;;;27.23;38.87;98727.88;5090078;28;20541;-58
2021/07/21 06:47:33;;;;;;;9.55;2.70;;;;;;;27.71;37.49;98743.41;5091741;28;20814;-58
2021/07/21 06:50:08;;;;;;;5.65;1.88;;;;;;;28.52;36.33;98741.56;5082301;28;20044;-58
2021/07/21 06:52:34;;;;;;;12.30;2.05;;;;;;;29.25;34.17;98735.88;5090209;28;20074;-59
2021/07/21 06:55:00;;;;;;;13.50;2.70;;;;;;;30.08;33.02;98734.97;5090723;28;20044;-59
2021/07/21 06:57:59;;;;;;;6.85;2.10;;;;;;;30.76;31.40;98724.22;5077952;28;20044;-59
2021/07/21 07:00:40;;;;;;;6.28;2.10;;;;;;;31.14;29.75;98730.69;5090834;28;20093;-60
2021/07/21 07:03:24;;;;;;;2.88;1.60;;;;;;;31.18;29.60;98731.91;5088215;28;20070;-59
2021/07/21 07:06:08;;;;;;;4.72;1.98;;;;;;;31.28;29.46;98731.47;5091843;28;20058;-59
2021/07/21 07:08:52;;;;;;;4.45;1.80;;;;;;;31.46;29.32;98731.66;5090999;28;20066;-59
2021/07/21 07:11:18;;;;;;;6.30;1.90;;;;;;;31.67;28.97;98731.44;5091949;28;20818;-60
2021/07/21 07:13:44;;;;;;;3.05;1.90;;;;;;;32.00;28.57;98725.13;5092016;28;20040;-59
2021/07/21 07:16:13;;;;;;;25.75;12.75;;;;;;;32.70;28.63;98724.19;5082226;28;20048;-59
2021/07/21 07:18:38;;;;;;;15.75;6.20;;;;;;;33.45;27.56;98725.81;5083726;28;20074;-59
2021/07/21 07:21:04;;;;;;;5.47;2.60;;;;;;;33.97;27.21;98729.84;5087065;28;20529;-58
2021/07/21 07:23:29;;;;;;;13.35;5.30;;;;;;;34.67;26.21;98730.19;5092034;28;20048;-59
2021/07/21 07:25:55;;;;;;;14.02;5.47;;;;;;;35.45;24.82;98737.25;5090543;28;20059;-59
2021/07/21 07:28:21;;;;;;;2.80;1.90;;;;;;;35.65;23.94;98733.13;5589227;22;20072;-59
2021/07/21 07:30:47;;;;;;;6.43;3.42;;;;;;;36.39;23.62;98727.91;5033026;28;20525;-60
2021/07/21 07:33:13;;;;;;;5.03;2.20;;;;;;;36.40;22.72;98735.81;5051232;28;20375;-59
2021/07/21 07:35:40;;;;;;;2.95;2.10;;;;;;;36.51;23.11;98734.94;5050586;28;20037;-57
2021/07/21 07:38:11;;;;;;;4.35;3.75;;;;;;;36.84;22.11;98731.50;5053775;28;20041;-59
2021/07/21 07:40:39;;;;;;;5.28;2.40;;;;;;;36.33;23.12;98729.69;5052009;28;20482;-60
2021/07/21 07:43:05;;;;;;;7.18;2.55;;;;;;;36.13;23.50;98739.28;5050773;28;20047;-59
2021/07/21 07:45:31;;;;;;;3.38;2.13;;;;;;;35.54;23.25;98731.25;5054559;28;20047;-60
2021/07/21 07:47:57;;;;;;;3.45;1.80;;;;;;;35.18;23.90;98723.38;5052581;28;20041;-58
2021/07/21 07:50:23;;;;;;;6.47;3.35;;;;;;;35.27;24.71;98727.41;5048334;28;20044;-59
2021/07/21 07:52:49;;;;;;;9.18;2.90;;;;;;;35.45;24.38;98732.66;5063834;28;20037;-60
2021/07/21 07:55:15;;;;;;;4.75;3.42;;;;;;;35.20;25.03;98732.09;5050974;28;20055;-62
2021/07/21 07:57:40;;;;;;;7.60;2.75;;;;;;;34.39;25.36;98735.34;5048569;28;20092;-60
2021/07/21 08:00:08;;;;;;;3.67;2.10;;;;;;;34.64;25.60;98733.34;5053807;28;20090;-60
2021/07/21 08:02:39;;;;;;;7.82;3.10;;;;;;;34.64;24.87;98733.34;5048471;28;20037;-60
2021/07/21 08:05:05;;;;;;;5.30;1.73;;;;;;;34.35;25.35;98726.91;5032524;28;20076;-60
2021/07/21 08:07:34;;;;;;;4.20;2.50;;;;;;;34.29;25.22;98725.09;5049722;28;20123;-58
2021/07/21 08:10:02;;;;;;;6.57;2.63;;;;;;;34.09;26.05;98721.81;5048903;28;20048;-60
2021/07/21 08:12:28;;;;;;;3.92;1.65;;;;;;;33.86;26.11;98719.00;5049864;28;20037;-60
2021/07/21 08:14:53;;;;;;;4.15;1.80;;;;;;;33.66;26.31;98715.66;5050332;28;20048;-60
2021/07/21 08:17:19;;;;;;;7.90;2.05;;;;;;;33.29;26.61;98718.31;5050014;28;20033;-59
2021/07/21 08:19:45;;;;;;;3.33;1.73;;;;;;;33.13;26.79;98711.59;5044545;28;20052;-59
2021/07/21 08:22:11;;;;;;;7.60;2.45;;;;;;;33.42;26.59;98715.50;5048085;28;20029;-59
2021/07/21 08:24:37;;;;;;;5.43;1.98;;;;;;;33.62;26.63;98709.91;5043021;28;20136;-57
2021/07/21 08:27:17;;;;;;;4.75;1.85;;;;;;;33.23;26.70;98715.72;5458857;22;20046;31
2021/07/21 08:29:43;;;;;;;10.98;7.47;;;;;;;32.71;27.78;98718.56;4894148;29;20060;-59
2021/07/21 08:32:08;;;;;;;5.57;2.10;;;;;;;32.77;27.53;98716.88;4903835;29;20040;-59
2021/07/21 08:34:34;;;;;;;3.00;2.17;;;;;;;33.38;26.48;98713.47;4900352;29;20472;-60
2021/07/21 08:36:59;;;;;;;5.13;2.80;;;;;;;33.31;26.50;98710.84;4902929;29;20051;-59
2021/07/21 08:39:25;;;;;;;4.45;2.40;;;;;;;33.44;26.41;98710.72;4899894;29;20044;-60
2021/07/21 08:41:51;;;;;;;52.55;35.15;;;;;;;33.80;26.42;98712.63;4899457;29;20036;-60
2021/07/21 08:44:17;;;;;;;13.45;10.63;;;;;;;34.01;26.50;98705.94;4887044;29;20101;-63
2021/07/21 08:46:44;;;;;;;40.40;29.40;;;;;;;34.56;25.82;98703.13;4896881;29;20064;-61
2021/07/21 08:49:10;;;;;;;5.43;4.45;;;;;;;34.99;25.12;98697.50;4901429;29;20056;-61
2021/07/21 08:51:37;;;;;;;17.95;13.48;;;;;;;34.82;25.56;98702.75;4896003;29;20549;-62
2021/07/21 08:54:03;;;;;;;24.88;17.85;;;;;;;34.34;26.26;98703.66;4887835;29;20068;-59
2021/07/21 08:56:29;;;;;;;7.13;2.92;;;;;;;34.50;25.71;98712.97;4895716;29;20083;-65
2021/07/21 08:58:55;;;;;;;21.38;9.75;;;;;;;35.48;24.90;98707.88;4888008;29;20068;-65
2021/07/21 09:01:21;;;;;;;4.53;3.22;;;;;;;36.44;23.54;98720.72;4891820;29;20397;-68
2021/07/21 09:03:48;;;;;;;14.63;3.20;;;;;;;37.31;22.91;98709.50;4902297;29;20139;-62
2021/07/21 09:06:27;;;;;;;22.50;19.42;;;;;;;37.81;22.04;98701.25;4874804;29;20065;-64
2021/07/21 09:08:53;;;;;;;10.73;4.55;;;;;;;37.72;22.35;98710.91;4860938;29;20040;-64
2021/07/21 09:11:20;;;;;;;4.13;2.90;;;;;;;37.11;22.26;98711.91;4859575;29;20135;-63
2021/07/21 09:13:46;;;;;;;10.40;5.40;;;;;;;36.45;22.91;98697.16;4870371;29;20043;-63
2021/07/21 09:16:12;;;;;;;6.63;2.55;;;;;;;36.18;22.83;98696.94;4906166;29;20048;-63
2021/07/21 09:18:52;;;;;;;3.38;2.45;;;;;;;36.77;21.84;98694.78;4886146;29;20161;-63
2021/07/21 09:21:22;;;;;;;3.55;3.22;;;;;;;37.77;21.06;98693.84;4900637;29;20088;-64
2021/07/21 09:23:53;;;;;;;4.85;2.70;;;;;;;38.98;20.13;98681.59;4899918;29;20040;-64
2021/07/21 09:26:36;;;;;;;11.95;4.38;;;;;;;39.71;19.30;98691.56;4879427;29;20718;-64
2021/07/21 09:29:01;;;;;;;13.93;7.00;;;;;;;40.01;18.96;98693.63;4890985;29;20063;-62
2021/07/21 09:31:38;;;;;;;5.15;3.13;;;;;;;40.59;18.13;98699.75;4901405;29;20040;-63
2021/07/21 09:34:23;;;;;;;8.07;6.40;;;;;;;40.54;18.01;98695.13;4900672;29;20036;-63
2021/07/21 09:36:59;;;;;;;10.55;6.60;;;;;;;40.33;18.46;98685.28;4907217;29;20051;-63
2021/07/21 09:39:36;;;;;;;15.57;6.30;;;;;;;40.31;18.64;98684.72;4905515;29;20055;-63
2021/07/21 09:42:04;;;;;;;6.43;4.45;;;;;;;40.34;18.31;98686.09;4905829;29;20521;-65
2021/07/21 09:44:34;;;;;;;;;;;;;;;40.36;18.29;98681.19;4907096;29;20048;-66
2021/07/21 09:47:21;;;;;;;3.03;2.58;;;;;;;40.42;17.39;98669.22;4907919;29;19929;-64
2021/07/21 09:49:47;;;;;;;3.72;3.10;;;;;;;40.49;17.23;98662.41;4907308;29;20055;-64
2021/07/21 09:52:24;;;;;;;13.77;8.73;;;;;;;41.10;17.33;98667.91;4905923;29;20044;-64
2021/07/21 09:55:05;;;;;;;5.55;3.30;;;;;;;41.29;17.34;98662.69;4903853;29;20047;-63
2021/07/21 09:57:32;;;;;;;4.57;2.95;;;;;;;41.68;16.54;98660.94;4907607;29;20037;-63
2021/07/21 09:59:58;;;;;;;10.70;3.47;;;;;;;41.51;17.23;98660.44;4906985;29;20079;-63
2021/07/21 10:02:27;;;;;;;3.08;2.88;;;;;;;41.44;15.90;98660.72;4906991;29;20083;-63
2021/07/21 10:04:53;;;;;;;7.68;5.53;;;;;;;41.45;16.42;98656.09;4906016;29;20036;-63
2021/07/21 10:10:17;;;;;;;19.55;13.40;;;;;;;41.69;16.11;98642.63;4905025;29;20049;-63
2021/07/21 10:12:44;;;;;;;7.65;3.60;;;;;;;40.91;17.16;98637.63;4905592;29;20123;-62
2021/07/21 10:15:10;;;;;;;5.15;2.72;;;;;;;41.08;16.70;98644.72;4904248;29;20052;-61
2021/07/21 10:17:36;;;;;;;2.90;2.25;;;;;;;40.86;16.45;98637.63;4907694;29;20044;-62
2021/07/21 10:20:03;;;;;;;6.18;5.43;;;;;;;38.71;17.81;98632.69;4889278;29;20079;-61
2021/07/21 10:22:29;;;;;;;3.20;2.90;;;;;;;38.12;18.40;98634.56;4907151;29;20479;-65
2021/07/21 10:24:57;;;;;;;3.00;2.70;;;;;;;38.63;18.12;98629.66;4904836;29;20123;-62
2021/07/21 10:27:23;;;;;;;2.97;2.70;;;;;;;39.30;18.10;98629.84;4906237;29;20049;-61
2021/07/21 10:29:49;;;;;;;4.60;2.97;;;;;;;39.74;18.21;98641.22;4901616;29;20080;-61
2021/07/21 10:32:15;;;;;;;4.68;3.72;;;;;;;40.33;17.89;98629.97;4904934;29;20040;-61
2021/07/21 10:34:44;;;;;;;7.68;3.60;;;;;;;40.30;18.37;98634.06;4905369;29;20041;-60
2021/07/21 10:37:11;;;;;;;13.32;11.32;;;;;;;40.59;18.01;98628.91;4900444;29;20040;-59
2021/07/21 10:39:37;;;;;;;3.37;3.07;;;;;;;41.00;17.07;98627.78;4900924;29;20154;-60
2021/07/21 10:42:08;;;;;;;11.27;2.58;;;;;;;40.28;17.79;98611.72;4884003;29;20068;-60
2021/07/21 10:44:34;;;;;;;6.45;2.20;;;;;;;38.66;19.24;98619.06;4869633;29;20493;-61
2021/07/21 10:47:00;;;;;;;5.75;2.38;;;;;;;37.34;20.14;98614.06;4892849;29;20099;-61
2021/07/21 11:00:18;;;;;;;3.97;2.50;;;;;;;39.65;16.46;98607.44;4905475;29;20103;-63
2021/07/21 11:02:45;;;;;;;2.30;1.92;;;;;;;39.10;16.11;98606.06;4897988;29;20048;-63
2021/07/21 11:05:26;;;;;;;3.70;2.30;;;;;;;38.61;16.72;98605.44;4897466;29;20044;-63
2021/07/21 11:07:54;;;;;;;2.72;2.17;;;;;;;38.34;17.40;98597.31;4905372;29;20065;-63
2021/07/21 11:10:40;;;;;;;4.22;2.40;;;;;;;37.87;17.51;98596.28;4901351;29;20091;-63
2021/07/21 11:13:12;;;;;;;4.50;2.40;;;;;;;37.87;17.91;98588.97;4900279;29;20180;-64
2021/07/21 11:15:44;;;;;;;3.85;1.98;;;;;;;37.43;17.90;98600.88;4903985;29;20372;-63
2021/07/21 11:18:22;;;;;;;3.45;2.10;;;;;;;36.40;19.74;98594.19;4911198;29;20579;-62
2021/07/21 11:21:00;;;;;;;4.32;2.72;;;;;;;35.83;19.87;98596.94;4901360;29;20048;-63
2021/07/21 11:23:39;;;;;;;9.27;3.13;;;;;;;34.97;21.02;98602.34;4895888;29;20486;-64
2021/07/21 11:26:35;;;;;;;3.05;2.00;;;;;;;34.99;20.71;98602.94;4892231;29;20056;-63
2021/07/21 11:29:23;;;;;;;5.10;2.05;;;;;;;35.15;20.54;98602.22;4898273;29;20071;-65
2021/07/21 11:31:50;;;;;;;4.05;2.65;;;;;;;35.00;20.29;98602.72;4895554;29;20367;-63
2021/07/21 11:34:32;;;;;;;9.73;2.13;;;;;;;35.27;20.46;98603.06;4901862;29;20044;-63
2021/07/21 11:36:59;;;;;;;5.15;2.60;;;;;;;35.82;19.81;98599.88;4882657;29;20130;-63
2021/07/21 11:39:50;;;;;;;3.65;1.95;;;;;;;35.74;20.02;98597.56;4899864;29;20045;-62
2021/07/21 11:42:40;;;;;;;3.72;2.40;;;;;;;35.95;20.30;98611.22;4902624;29;20139;-64
2021/07/21 11:45:06;;;;;;;5.05;2.10;;;;;;;35.99;20.31;98609.69;4898211;29;20281;-65
2021/07/21 11:47:42;;;;;;;6.13;1.92;;;;;;;35.78;20.15;98613.06;4901668;29;20042;-65
2021/07/21 11:50:14;;;;;;;6.93;2.33;;;;;;;35.06;20.63;98607.19;4896218;29;20559;-64
2021/07/21 11:52:40;;;;;;;6.40;2.90;;;;;;;34.51;21.23;98603.94;4900138;29;20126;-62
2021/07/21 11:55:07;;;;;;;24.00;16.27;;;;;;;34.75;21.44;98600.25;4901097;29;20111;-65
2021/07/21 11:57:34;;;;;;;5.25;3.55;;;;;;;35.27;20.95;98603.06;4902212;29;20048;-63
2021/07/21 12:00:00;;;;;;;12.38;4.53;;;;;;;35.67;21.00;98608.50;4886866;29;20500;-63
2021/07/21 12:02:27;;;;;;;22.25;7.88;;;;;;;35.66;20.95;98604.13;4911083;29;20048;-66
2021/07/21 12:04:56;;;;;;;26.33;3.35;;;;;;;35.17;20.86;98595.50;4903878;29;20055;-61
2021/07/21 12:07:23;;;;;;;3.78;2.20;;;;;;;34.43;21.14;98593.50;4901367;29;20045;-61
2021/07/21 12:09:52;;;;;;;3.90;2.47;;;;;;;33.99;22.08;98595.56;4888227;29;20135;-63
2021/07/21 12:12:22;;;;;;;3.83;2.58;;;;;;;33.92;22.38;98592.13;4903461;29;20126;-65
2021/07/21 12:14:52;;;;;;;6.80;2.78;;;;;;;33.67;22.71;98590.59;4879934;29;20539;-63